Airport View

Enter AWOS ICAO identifier for current METAR.

ex. KFNL

KAMW 080753Z AUTO 00000KT 10SM CLR 09/06 A2974 RMK AO2 SLP064 T00890061

8 Apr 2020 08:06

Frequency: 132.025

Phone: 515-233-2611

Other Area AWOS: KBNW - KIKV - KPRO - KDSM

TAF KDSM 080535Z 0806/0906 VRB04KT P6SM SKC FM081600 32011G18KT P6SM VCSH SCT080 BKN150 FM081900 34017G27KT P6SM VCSH BKN070 OVC120 FM082300 32013G20KT P6SM SCT100 BKN150 FM090400 31010KT P6SM FEW200